Time;durP1;ratioP1;P1;durP2;ratioP2;P2;SDS_P1;SDS_P2;PMS_P1;PMS_P2;Temp;Humidity;BMP_temperature;BMP_pressure;BME280_temperature;BME280_humidity;BME280_pressure;Samples;Min_cycle;Max_cycle;Signal;HPM_P1;HPM_P2
2022/04/26 03:36:41;;;;;;;52.08;31.83;;;9.30;70.20;;;;;;7362065;19;20011;-63
2022/04/26 03:39:11;;;;;;;56.42;32.90;;;9.30;70.10;;;;;;7364062;19;20010;-63
2022/04/26 03:41:41;;;;;;;51.25;31.17;;;9.20;70.10;;;;;;7358999;19;20021;-63
2022/04/26 03:44:10;;;;;;;47.63;30.75;;;9.20;70.10;;;;;;7362030;19;20485;-63
2022/04/26 03:46:40;;;;;;;51.17;31.40;;;9.10;70.00;;;;;;7371494;19;20466;-63
2022/04/26 03:49:13;;;;;;;55.47;33.40;;;9.10;70.00;;;;;;7385941;19;20014;-62
2022/04/26 03:51:43;;;;;;;50.83;32.40;;;9.10;69.90;;;;;;7358330;19;20018;-63
2022/04/26 03:54:12;;;;;;;45.20;29.08;;;9.00;69.80;;;;;;7359910;19;20015;-62
2022/04/26 03:56:42;;;;;;;47.60;30.85;;;9.10;70.00;;;;;;7361681;19;20021;-62
2022/04/26 03:59:12;;;;;;;50.60;30.63;;;9.10;70.10;;;;;;7363429;19;20016;-64
2022/04/26 04:01:44;;;;;;;49.38;30.60;;;9.10;70.10;;;;;;7358502;19;20250;-62
2022/04/26 04:04:21;;;;;;;43.95;30.55;;;9.10;70.10;;;;;;7381483;19;20018;-63
2022/04/26 04:06:52;;;;;;;48.85;31.58;;;9.10;70.00;;;;;;7363178;19;20110;-62
2022/04/26 04:09:22;;;;;;;50.92;31.40;;;9.10;70.10;;;;;;7362538;19;20022;-63
2022/04/26 04:11:52;;;;;;;51.42;31.20;;;9.10;70.20;;;;;;7356570;19;20489;-62
2022/04/26 04:14:21;;;;;;;50.88;32.13;;;9.10;70.30;;;;;;7361880;19;20017;-63
2022/04/26 04:16:51;;;;;;;50.42;30.73;;;9.10;70.20;;;;;;7366375;19;20010;-62
2022/04/26 04:19:25;;;;;;;44.15;31.50;;;9.00;70.20;;;;;;7389759;19;20014;-63
2022/04/26 04:21:58;;;;;;;46.45;29.88;;;9.10;70.30;;;;;;7364489;19;20014;-63
2022/04/26 04:24:29;;;;;;;47.08;29.95;;;9.10;70.50;;;;;;7367968;19;20022;-63
2022/04/26 04:26:59;;;;;;;48.20;30.10;;;9.10;70.50;;;;;;7369825;19;20002;-62
2022/04/26 04:29:31;;;;;;;45.80;29.70;;;9.00;70.50;;;;;;7370934;19;20018;-63
2022/04/26 04:32:04;;;;;;;48.90;30.45;;;9.10;70.70;;;;;;7363389;19;20018;-64
2022/04/26 04:34:37;;;;;;;47.25;29.67;;;9.10;70.60;;;;;;7389342;19;20015;-63
2022/04/26 04:37:08;;;;;;;49.50;31.50;;;9.10;70.80;;;;;;7369796;19;20052;-62
2022/04/26 04:39:43;;;;;;;43.47;28.48;;;9.10;70.90;;;;;;7366891;19;20589;-63
2022/04/26 04:42:14;;;;;;;49.58;29.95;;;9.20;71.10;;;;;;7360930;19;20641;-63
2022/04/26 04:44:44;;;;;;;47.75;30.63;;;9.20;71.10;;;;;;7368658;19;20014;-63
2022/04/26 04:47:13;;;;;;;44.67;29.38;;;9.20;71.10;;;;;;7368737;19;20010;-63
2022/04/26 04:49:46;;;;;;;47.45;31.27;;;9.20;71.20;;;;;;7370290;19;20424;-63
2022/04/26 04:52:17;;;;;;;45.42;29.08;;;9.20;71.30;;;;;;7383026;19;20103;-62
2022/04/26 04:54:47;;;;;;;44.15;27.90;;;9.30;71.50;;;;;;7365092;19;20014;-62
2022/04/26 04:57:17;;;;;;;43.75;28.45;;;9.30;71.30;;;;;;7368088;19;20007;-62
2022/04/26 04:59:46;;;;;;;41.65;27.85;;;9.20;71.00;;;;;;7367998;19;20081;-62
2022/04/26 05:02:16;;;;;;;36.70;25.92;;;9.30;70.70;;;;;;7361492;19;20011;-63
2022/04/26 05:04:51;;;;;;;35.75;25.17;;;9.30;70.00;;;;;;7367440;19;20029;-62
2022/04/26 05:07:21;;;;;;;42.55;28.23;;;9.30;70.20;;;;;;7390092;19;20480;-62
2022/04/26 05:09:53;;;;;;;38.38;25.23;;;9.30;70.10;;;;;;7368346;19;20011;-63
2022/04/26 05:12:23;;;;;;;38.70;26.23;;;9.30;70.10;;;;;;7359159;19;21138;-64
2022/04/26 05:14:53;;;;;;;36.95;23.92;;;9.30;70.20;;;;;;7367469;19;20085;-63
2022/04/26 05:17:23;;;;;;;37.40;25.38;;;9.40;70.30;;;;;;7367365;19;20340;-63
2022/04/26 05:19:56;;;;;;;36.55;25.20;;;9.40;70.20;;;;;;7367412;19;20015;-63
2022/04/26 05:22:26;;;;;;;38.00;24.67;;;9.50;69.80;;;;;;7381263;19;20573;-61
2022/04/26 05:24:53;;;;;;;36.00;25.38;;;9.50;69.40;;;;;;7364829;19;20018;-62
2022/04/26 05:27:23;;;;;;;40.95;26.35;;;9.50;68.10;;;;;;7367094;19;20496;-62
2022/04/26 05:29:53;;;;;;;40.55;25.63;;;9.60;68.50;;;;;;7367776;19;20039;-62
2022/04/26 05:32:23;;;;;;;37.65;25.15;;;9.50;67.60;;;;;;7360090;19;20121;-63
2022/04/26 05:35:01;;;;;;;39.38;26.70;;;9.50;66.90;;;;;;7364577;19;20075;-62
2022/04/26 05:37:32;;;;;;;36.72;25.27;;;9.50;67.80;;;;;;7388221;19;20027;-63
2022/04/26 05:40:03;;;;;;;38.35;25.50;;;9.50;66.80;;;;;;7365453;19;20093;-63
2022/04/26 05:42:33;;;;;;;40.83;26.85;;;9.60;68.10;;;;;;7359676;19;20425;-63
2022/04/26 05:45:03;;;;;;;39.42;26.98;;;9.70;67.10;;;;;;7366243;19;20474;-62
2022/04/26 05:47:33;;;;;;;42.13;26.83;;;9.60;66.20;;;;;;7366796;19;20030;-61
2022/04/26 05:50:06;;;;;;;37.92;25.02;;;9.60;66.70;;;;;;7368127;19;20099;-63
2022/04/26 05:52:36;;;;;;;36.75;25.00;;;9.60;66.90;;;;;;7381488;19;20015;-63
2022/04/26 05:55:07;;;;;;;42.35;26.80;;;9.60;66.40;;;;;;7363968;19;20018;-61
2022/04/26 05:57:40;;;;;;;41.13;26.48;;;9.60;66.20;;;;;;7366323;19;20015;-62
2022/04/26 06:00:12;;;;;;;44.80;28.15;;;9.60;66.10;;;;;;7367116;19;20344;-62
2022/04/26 06:02:42;;;;;;;43.40;27.35;;;9.60;66.40;;;;;;7358144;19;20090;-63
2022/04/26 06:05:19;;;;;;;42.08;26.65;;;9.60;66.70;;;;;;7363167;19;20011;-62
2022/04/26 06:07:49;;;;;;;42.90;27.60;;;9.60;67.50;;;;;;7366500;19;20015;-62
2022/04/26 06:10:19;;;;;;;41.85;26.35;;;9.70;67.50;;;;;;7385371;19;20009;-63
2022/04/26 06:12:49;;;;;;;43.42;26.98;;;9.70;67.60;;;;;;7357612;19;20014;-63
2022/04/26 06:15:21;;;;;;;41.58;26.33;;;9.70;67.00;;;;;;7364298;19;20286;-63
2022/04/26 06:17:51;;;;;;;36.47;24.50;;;9.70;66.30;;;;;;7366617;19;20003;-62
2022/04/26 06:20:25;;;;;;;37.92;24.15;;;9.70;66.50;;;;;;7365939;19;20006;-63
2022/04/26 06:22:55;;;;;;;38.50;25.20;;;9.70;65.90;;;;;;7357631;19;20070;-63
2022/04/26 06:25:25;;;;;;;33.40;22.55;;;9.80;66.40;;;;;;7384811;19;20501;-63
2022/04/26 06:27:55;;;;;;;34.38;23.42;;;9.70;65.80;;;;;;7364265;19;20119;-63
2022/04/26 06:30:26;;;;;;;31.95;21.95;;;9.80;65.80;;;;;;7365872;19;20013;-63
2022/04/26 06:32:56;;;;;;;33.17;23.08;;;9.70;63.70;;;;;;7357593;19;20618;-63
2022/04/26 06:35:28;;;;;;;30.02;20.77;;;9.80;63.60;;;;;;7364150;19;20021;-63
2022/04/26 06:37:58;;;;;;;30.27;21.23;;;9.70;62.10;;;;;;7362840;19;20070;-62
2022/04/26 06:40:29;;;;;;;30.08;21.10;;;9.60;60.80;;;;;;7387088;19;20021;-62
2022/04/26 06:42:59;;;;;;;26.30;18.48;;;9.70;63.70;;;;;;7355982;19;20019;-62
2022/04/26 06:45:29;;;;;;;28.10;19.45;;;9.70;59.90;;;;;;7363061;19;20767;-62
2022/04/26 06:47:59;;;;;;;27.20;20.13;;;9.70;61.10;;;;;;7364889;19;20071;-62
2022/04/26 06:50:32;;;;;;;27.55;20.13;;;9.80;62.30;;;;;;7366034;19;20400;-64
2022/04/26 06:53:01;;;;;;;30.42;21.88;;;9.80;61.80;;;;;;7356462;19;20250;-62
2022/04/26 06:55:31;;;;;;;29.02;21.10;;;10.00;62.80;;;;;;7384513;19;20015;-62
2022/04/26 06:58:01;;;;;;;31.00;21.95;;;10.00;61.50;;;;;;7363605;19;20021;-62
2022/04/26 07:00:31;;;;;;;30.00;20.75;;;9.90;61.60;;;;;;7363490;19;20006;-62
2022/04/26 07:03:01;;;;;;;30.60;20.52;;;10.10;60.10;;;;;;7356284;19;20010;-62
2022/04/26 07:05:34;;;;;;;26.02;19.73;;;10.10;57.50;;;;;;7363479;19;20013;-62
2022/04/26 07:08:04;;;;;;;29.08;19.95;;;10.00;53.30;;;;;;7362279;19;20006;-62
2022/04/26 07:10:34;;;;;;;28.05;19.83;;;10.10;55.40;;;;;;7388203;19;20009;-62
2022/04/26 07:13:04;;;;;;;28.77;20.30;;;10.20;54.40;;;;;;7355999;19;20014;-62
2022/04/26 07:15:34;;;;;;;30.00;21.02;;;10.10;52.10;;;;;;7364726;19;20011;-62
2022/04/26 07:18:04;;;;;;;25.20;18.48;;;10.20;55.40;;;;;;7363449;19;20443;-62
2022/04/26 07:20:37;;;;;;;27.30;18.85;;;10.10;51.90;;;;;;7364556;19;20018;-63
2022/04/26 07:23:07;;;;;;;24.17;17.73;;;10.30;52.50;;;;;;7355678;19;20014;-62
2022/04/26 07:25:37;;;;;;;21.83;15.48;;;10.20;45.50;;;;;;7383308;19;20022;-62
2022/04/26 07:28:07;;;;;;;18.35;14.18;;;10.20;45.50;;;;;;7362896;19;20074;-63
2022/04/26 07:30:39;;;;;;;18.20;13.98;;;10.20;44.50;;;;;;7363451;19;20363;-63
2022/04/26 07:35:56;;;;;;;20.83;16.15;;;10.30;45.70;;;;;;7361003;19;20007;-63
2022/04/26 07:38:26;;;;;;;23.33;16.48;;;10.50;45.50;;;;;;7360797;19;20494;-62
2022/04/26 07:40:56;;;;;;;19.15;14.43;;;10.60;45.80;;;;;;7362286;19;20011;-62
2022/04/26 07:43:25;;;;;;;21.33;14.60;;;10.50;39.50;;;;;;7377237;19;20086;-62
2022/04/26 07:45:55;;;;;;;21.63;16.10;;;10.50;44.70;;;;;;7362678;19;20003;-62
2022/04/26 07:48:25;;;;;;;16.67;13.20;;;10.50;43.00;;;;;;7361533;19;20411;-63
2022/04/26 07:50:58;;;;;;;18.40;13.60;;;10.20;39.70;;;;;;7362446;19;20014;-63
2022/04/26 07:53:28;;;;;;;17.63;14.38;;;10.20;42.50;;;;;;7355590;19;20007;-62
2022/04/26 07:55:58;;;;;;;16.55;13.57;;;10.30;43.10;;;;;;7361682;19;20026;-61
2022/04/26 07:58:28;;;;;;;20.15;14.65;;;10.60;36.10;;;;;;7384400;19;20101;-62
2022/04/26 08:00:58;;;;;;;18.50;14.95;;;10.80;33.40;;;;;;7361480;19;20014;-62
2022/04/26 08:03:28;;;;;;;17.25;14.10;;;10.70;37.70;;;;;;7355043;19;20078;-62
2022/04/26 08:06:01;;;;;;;18.45;14.63;;;10.50;37.50;;;;;;7362319;19;20506;-62
2022/04/26 08:08:31;;;;;;;17.20;12.95;;;10.50;36.30;;;;;;7362558;19;20102;-61
2022/04/26 08:11:01;;;;;;;18.60;13.70;;;10.40;37.10;;;;;;7363615;19;20015;-62
2022/04/26 08:13:31;;;;;;;18.67;13.98;;;10.60;32.00;;;;;;7376211;19;20118;-62
2022/04/26 08:16:01;;;;;;;18.75;13.77;;;10.60;32.40;;;;;;7362742;19;20006;-62
2022/04/26 08:18:31;;;;;;;16.92;13.82;;;10.50;32.50;;;;;;7362680;19;20006;-62
2022/04/26 08:21:04;;;;;;;19.20;14.52;;;10.70;32.90;;;;;;7361690;19;20021;-62
2022/04/26 08:27:22;;;;;;;19.25;14.40;;;10.90;33.60;;;;;;7353524;19;20010;-62
2022/04/26 08:29:09;;;;;;;15.90;12.45;;;11.30;27.90;;;;;;7363284;19;20090;-62
2022/04/26 08:31:39;;;;;;;17.70;13.48;;;11.10;22.50;;;;;;7379103;19;20014;-62
2022/04/26 08:34:10;;;;;;;18.33;13.07;;;11.20;27.10;;;;;;7359677;19;20109;-62
2022/04/26 08:36:42;;;;;;;15.13;11.95;;;11.60;22.30;;;;;;7360865;19;20022;-62
2022/04/26 08:39:12;;;;;;;19.38;11.63;;;11.80;18.30;;;;;;7362252;19;20089;-63
2022/04/26 08:41:42;;;;;;;16.65;11.90;;;12.00;19.40;;;;;;7354066;19;20110;-63
2022/04/26 08:44:12;;;;;;;12.57;10.35;;;12.10;14.60;;;;;;7359861;19;20109;-62
2022/04/26 08:52:11;;;;;;;15.02;9.90;;;11.90;12.10;;;;;;7355413;19;20013;-63
2022/04/26 08:54:41;;;;;;;12.02;10.05;;;11.90;11.10;;;;;;7360238;19;20017;-62
2022/04/26 08:57:14;;;;;;;11.85;9.45;;;12.00;10.10;;;;;;7359460;19;20062;-62
2022/04/26 08:59:49;;;;;;;13.73;9.93;;;12.20;8.80;;;;;;7362341;19;20014;-62
2022/04/26 09:02:20;;;;;;;14.30;9.57;;;12.60;7.80;;;;;;7357837;19;20034;-63
2022/04/26 09:04:53;;;;;;;14.23;9.30;;;12.00;6.00;;;;;;7367952;19;20010;-63
2022/04/26 09:07:36;;;;;;;11.75;8.57;;;12.40;5.10;;;;;;7389032;19;20415;-62
2022/04/26 09:10:10;;;;;;;12.50;9.27;;;12.30;5.30;;;;;;7369174;19;20098;-62
2022/04/26 09:13:07;;;;;;;12.82;9.43;;;12.60;2.80;;;;;;7360231;19;20102;-62
2022/04/26 09:15:44;;;;;;;10.93;8.57;;;12.30;4.70;;;;;;7367379;19;20015;-62
2022/04/26 09:18:20;;;;;;;10.32;8.05;;;12.10;4.20;;;;;;7367873;19;20358;-63
2022/04/26 09:20:51;;;;;;;10.48;9.15;;;11.80;5.30;;;;;;7368881;19;20412;-62
2022/04/26 09:23:26;;;;;;;10.32;8.70;;;12.10;5.50;;;;;;7359991;19;20011;-62
2022/04/26 09:25:57;;;;;;;;;;;12.40;4.30;;;;;;7366120;19;20020;-62
2022/04/26 09:28:30;;;;;;;12.43;9.63;;;12.90;5.30;;;;;;7388949;19;19918;-63
2022/04/26 09:31:00;;;;;;;9.95;8.80;;;13.20;5.20;;;;;;7364901;19;20007;-63
2022/04/26 09:33:36;;;;;;;9.00;7.15;;;13.10;1.00;;;;;;7359202;19;20520;-63
2022/04/26 09:36:09;;;;;;;13.27;9.73;;;12.60;1.00;;;;;;7368350;19;20011;-62
2022/04/26 09:38:43;;;;;;;10.27;7.88;;;13.50;1.00;;;;;;7367108;19;20025;-63
2022/04/26 09:41:12;;;;;;;11.43;7.88;;;14.30;1.00;;;;;;7368177;19;20088;-61
2022/04/26 09:43:42;;;;;;;11.02;8.95;;;14.50;1.00;;;;;;7359661;19;20022;-62
2022/04/26 09:46:12;;;;;;;9.88;7.82;;;13.60;1.00;;;;;;7389746;19;20073;-62
2022/04/26 09:48:43;;;;;;;11.90;8.35;;;13.80;1.00;;;;;;7366857;19;20007;-63
2022/04/26 09:51:13;;;;;;;7.80;6.68;;;14.40;1.00;;;;;;7366408;19;20010;-62
2022/04/26 09:53:46;;;;;;;11.95;7.07;;;13.20;1.00;;;;;;7357648;19;20446;-62
2022/04/26 09:56:17;;;;;;;10.85;7.22;;;13.10;1.00;;;;;;7365985;19;20010;-62
2022/04/26 09:58:54;;;;;;;10.25;7.97;;;13.50;1.00;;;;;;7364968;19;20101;-62
2022/04/26 10:01:24;;;;;;;9.95;8.38;;;13.40;1.00;;;;;;7383079;19;20025;-61
2022/04/26 10:04:02;;;;;;;10.45;7.85;;;14.00;1.00;;;;;;7358185;19;20050;-62
2022/04/26 10:06:36;;;;;;;10.93;8.63;;;14.60;1.00;;;;;;7366477;19;20087;-63
2022/04/26 10:09:10;;;;;;;8.77;7.60;;;13.90;1.00;;;;;;7366631;19;20017;-62
2022/04/26 10:11:41;;;;;;;9.57;7.50;;;14.10;1.00;;;;;;7360475;19;20488;-65
2022/04/26 10:14:12;;;;;;;9.18;6.97;;;13.90;1.00;;;;;;7362567;19;20010;-62
2022/04/26 10:16:42;;;;;;;10.18;7.25;;;13.70;1.00;;;;;;7366363;19;20479;-62
2022/04/26 10:19:13;;;;;;;10.40;6.38;;;13.80;1.00;;;;;;7388870;19;20333;-62
2022/04/26 10:21:50;;;;;;;7.75;6.47;;;13.90;1.00;;;;;;7358934;19;20121;-62
2022/04/26 10:24:24;;;;;;;9.63;5.97;;;13.90;1.00;;;;;;7361759;19;20017;-65
2022/04/26 10:26:54;;;;;;;;;;;13.30;1.00;;;;;;7366157;19;20508;-63
2022/04/26 10:29:26;;;;;;;8.77;7.28;;;13.20;1.00;;;;;;7363820;19;19981;-62
2022/04/26 10:32:02;;;;;;;8.55;7.13;;;14.00;1.00;;;;;;7359977;19;20516;-63
2022/04/26 10:34:34;;;;;;;7.55;6.57;;;14.60;1.00;;;;;;7384262;19;20011;-63
2022/04/26 10:37:32;;;;;;;7.50;6.00;;;14.80;1.00;;;;;;7366379;19;20007;-61
2022/04/26 10:40:06;;;;;;;8.15;5.63;;;14.50;1.00;;;;;;7365555;19;20565;-62
2022/04/26 10:42:36;;;;;;;7.40;6.28;;;13.90;1.00;;;;;;7355875;19;20011;-61
2022/04/26 10:45:10;;;;;;;7.10;6.15;;;13.60;1.00;;;;;;7364131;19;20102;-62
2022/04/26 10:47:40;;;;;;;8.70;6.20;;;13.90;1.00;;;;;;7364380;19;20025;-63
2022/04/26 10:50:13;;;;;;;9.40;6.40;;;13.70;1.00;;;;;;7364019;19;20015;-63
2022/04/26 10:52:44;;;;;;;8.30;5.80;;;14.10;1.00;;;;;;7355221;19;20054;-61
2022/04/26 10:55:21;;;;;;;10.23;6.43;;;14.10;1.00;;;;;;7383336;19;20022;-62
2022/04/26 10:57:52;;;;;;;8.70;7.00;;;13.80;1.00;;;;;;7363272;19;20018;-61
2022/04/26 11:00:32;;;;;;;7.25;6.18;;;13.60;1.00;;;;;;7364646;19;20011;-63
2022/04/26 11:03:04;;;;;;;8.93;6.88;;;13.90;1.00;;;;;;7356747;19;20125;-63
2022/04/26 11:05:35;;;;;;;7.63;6.82;;;14.70;1.00;;;;;;7362379;19;20349;-63
2022/04/26 11:08:09;;;;;;;7.65;6.95;;;13.90;1.00;;;;;;7360421;19;20509;-64
2022/04/26 11:13:35;;;;;;;9.20;7.45;;;12.70;1.00;;;;;;7356083;19;20018;-61
2022/04/26 11:16:17;;;;;;;8.38;7.47;;;12.00;1.00;;;;;;7364857;19;20033;-62
2022/04/26 11:18:47;;;;;;;9.95;8.52;;;11.60;1.00;;;;;;7363176;19;20014;-62
2022/04/26 11:21:17;;;;;;;10.90;9.35;;;11.60;2.40;;;;;;7362047;19;20010;-61
2022/04/26 11:29:31;;;;;;;9.93;8.13;;;11.60;5.10;;;;;;7362738;19;20643;-61
2022/04/26 11:32:02;;;;;;;6.68;5.07;;;11.20;5.00;;;;;;7356749;19;20850;-63
2022/04/26 11:34:47;;;;;;;5.43;4.75;;;11.00;1.00;;;;;;7381772;19;20014;-62
2022/04/26 11:37:17;;;;;;;5.35;4.60;;;11.10;1.00;;;;;;7363812;19;20221;-62
2022/04/26 11:39:47;;;;;;;5.45;4.05;;;11.40;1.00;;;;;;7363262;19;20010;-61
2022/04/26 11:42:19;;;;;;;4.82;4.30;;;11.30;1.00;;;;;;7353975;19;20043;-62
2022/04/26 11:45:02;;;;;;;5.88;4.72;;;11.20;1.00;;;;;;7361784;19;20010;-62
2022/04/26 11:47:48;;;;;;;6.43;4.55;;;11.80;1.00;;;;;;7362114;19;20452;-63
2022/04/26 11:50:25;;;;;;;6.88;4.75;;;11.50;1.00;;;;;;7362834;19;20116;-61
2022/04/26 11:53:02;;;;;;;5.93;4.30;;;11.60;1.00;;;;;;7353621;19;20082;-62
2022/04/26 11:55:34;;;;;;;5.18;4.68;;;12.00;1.00;;;;;;7382998;19;20056;-61
2022/04/26 11:58:12;;;;;;;5.22;4.65;;;12.10;1.00;;;;;;7361043;19;20089;-62
2022/04/26 12:00:59;;;;;;;7.55;5.28;;;12.00;1.00;;;;;;7361837;19;20007;-61
2022/04/26 12:03:33;;;;;;;7.03;5.13;;;11.50;1.00;;;;;;7351763;19;20057;-62
2022/04/26 12:06:06;;;;;;;6.43;4.85;;;11.90;1.00;;;;;;7360630;19;20022;-62
2022/04/26 12:08:39;;;;;;;6.63;4.82;;;12.30;1.00;;;;;;7361044;19;20074;-62
2022/04/26 12:11:23;;;;;;;8.67;4.77;;;12.80;1.00;;;;;;7363302;19;20015;-62
2022/04/26 12:14:07;;;;;;;5.47;4.25;;;12.70;1.00;;;;;;7357676;19;20293;-61
2022/04/26 12:16:39;;;;;;;5.50;3.97;;;13.00;1.00;;;;;;7385260;19;20633;-62
2022/04/26 12:19:09;;;;;;;4.82;3.72;;;13.00;1.00;;;;;;7359672;19;20082;-62
2022/04/26 12:21:47;;;;;;;8.35;4.50;;;13.30;1.00;;;;;;7356371;19;20074;-62
2022/04/26 12:24:21;;;;;;;6.78;5.43;;;12.90;1.00;;;;;;7357757;19;20522;-61
2022/04/26 12:26:52;;;;;;;5.35;4.57;;;12.90;1.00;;;;;;7359629;19;20015;-61
2022/04/26 12:29:27;;;;;;;8.85;5.22;;;13.10;1.00;;;;;;7361676;19;20097;-61
2022/04/26 12:31:57;;;;;;;6.35;5.30;;;12.90;1.00;;;;;;7354690;19;20446;-61
2022/04/26 12:34:29;;;;;;;8.93;5.45;;;13.50;1.00;;;;;;7379620;19;20056;-62
2022/04/26 12:37:03;;;;;;;5.20;3.95;;;12.40;1.00;;;;;;7367407;19;20014;-62
2022/04/26 12:39:44;;;;;;;4.15;3.42;;;12.10;1.00;;;;;;7367875;19;20370;-61
2022/04/26 12:42:15;;;;;;;3.75;2.50;;;12.30;1.00;;;;;;7355846;19;20520;-62
2022/04/26 12:44:56;;;;;;;2.75;2.35;;;12.10;1.00;;;;;;7364862;19;20011;-62
2022/04/26 12:52:55;;;;;;;3.22;2.00;;;12.60;1.00;;;;;;7359134;19;20022;-62
2022/04/26 12:55:34;;;;;;;4.15;2.10;;;12.20;1.00;;;;;;7386191;19;20010;-61
2022/04/26 12:58:05;;;;;;;2.05;1.80;;;12.10;1.00;;;;;;7364703;19;20558;-61
2022/04/26 13:00:41;;;;;;;2.58;1.67;;;11.90;1.00;;;;;;7366184;19;20021;-62
2022/04/26 13:03:12;;;;;;;2.50;1.70;;;12.60;1.00;;;;;;7356236;19;20036;-62
2022/04/26 13:05:44;;;;;;;2.63;1.90;;;12.20;1.00;;;;;;7366767;19;20013;-61
2022/04/26 13:08:16;;;;;;;2.90;2.08;;;12.60;1.00;;;;;;7366523;19;20007;-62
2022/04/26 13:10:47;;;;;;;4.43;2.20;;;12.10;1.00;;;;;;7367027;19;20025;-62
2022/04/26 13:13:18;;;;;;;3.60;2.35;;;12.10;1.00;;;;;;7381848;19;20106;-61
2022/04/26 13:15:50;;;;;;;2.70;2.30;;;11.90;1.00;;;;;;7366848;19;20006;-62
2022/04/26 13:18:20;;;;;;;3.03;2.28;;;12.10;1.00;;;;;;7367114;19;20301;-61
2022/04/26 13:20:52;;;;;;;2.53;1.95;;;12.00;1.00;;;;;;7367307;19;20010;-62
2022/04/26 13:23:22;;;;;;;2.45;1.80;;;12.30;1.00;;;;;;7360118;19;20013;-62
2022/04/26 13:25:53;;;;;;;3.20;1.70;;;12.60;1.00;;;;;;7365200;19;20018;-71
2022/04/26 13:28:29;;;;;;;2.67;1.60;;;12.50;1.00;;;;;;7388024;19;20022;-62
2022/04/26 13:31:01;;;;;;;1.55;1.45;;;13.00;1.00;;;;;;7365651;19;20015;-63
2022/04/26 13:33:32;;;;;;;1.95;1.20;;;13.10;1.00;;;;;;7357789;19;20035;-62
2022/04/26 13:36:02;;;;;;;1.40;1.10;;;13.50;1.00;;;;;;7369369;19;20098;-63
2022/04/26 13:38:32;;;;;;;1.80;1.23;;;13.00;1.00;;;;;;7366977;19;20090;-64
2022/04/26 13:41:02;;;;;;;2.13;1.25;;;13.40;1.00;;;;;;7366270;19;20557;-63
2022/04/26 13:43:34;;;;;;;3.17;1.65;;;12.20;1.00;;;;;;7378615;19;20022;-64
2022/04/26 13:46:20;;;;;;;1.70;1.20;;;12.90;1.00;;;;;;7367134;19;20006;-64
2022/04/26 13:48:51;;;;;;;1.70;1.30;;;12.50;1.00;;;;;;7364946;19;20014;-63
2022/04/26 13:51:23;;;;;;;1.88;1.10;;;12.40;1.00;;;;;;7363703;19;20134;-63
2022/04/26 13:53:53;;;;;;;2.15;1.35;;;12.40;1.00;;;;;;7361508;19;20098;-63
2022/04/26 13:56:23;;;;;;;1.98;1.60;;;12.60;1.00;;;;;;7363930;19;20022;-64
2022/04/26 13:58:53;;;;;;;2.45;1.25;;;13.60;1.00;;;;;;7366053;19;20390;-64
2022/04/26 14:01:26;;;;;;;3.60;1.48;;;13.90;1.00;;;;;;7385422;19;20018;-65
2022/04/26 14:03:56;;;;;;;3.55;1.80;;;13.90;1.00;;;;;;7359103;19;20018;-64
2022/04/26 14:06:26;;;;;;;3.25;2.08;;;13.60;1.00;;;;;;7366590;19;20102;-64
2022/04/26 14:08:56;;;;;;;2.22;1.83;;;13.00;1.00;;;;;;7363856;19;20017;-63
2022/04/26 14:11:26;;;;;;;2.45;1.75;;;13.40;1.00;;;;;;7362639;19;20021;-64
2022/04/26 14:22:32;;;;;;;2.33;1.90;;;13.40;1.00;;;;;;7379622;19;20014;-64
2022/04/26 14:25:02;;;;;;;2.60;1.95;;;13.70;1.00;;;;;;7363207;19;20027;-65
2022/04/26 14:27:33;;;;;;;2.08;1.80;;;13.70;1.00;;;;;;7365262;19;20363;-64
2022/04/26 14:30:03;;;;;;;3.47;2.65;;;13.80;1.00;;;;;;7365000;19;20094;-63
2022/04/26 14:32:56;;;;;;;2.50;2.30;;;13.70;1.00;;;;;;7356456;19;20470;-63
2022/04/26 14:35:27;;;;;;;3.38;2.70;;;13.90;1.00;;;;;;7364342;19;20086;-64
2022/04/26 14:37:58;;;;;;;2.97;2.30;;;13.50;1.00;;;;;;7365387;19;20513;-63
2022/04/26 14:40:28;;;;;;;4.18;2.60;;;12.80;1.00;;;;;;7387247;19;20408;-63
2022/04/26 14:43:03;;;;;;;2.47;2.17;;;13.60;1.00;;;;;;7356097;19;20014;-63
2022/04/26 14:45:33;;;;;;;3.33;2.13;;;14.20;1.00;;;;;;7364798;19;20427;-64
2022/04/26 14:48:06;;;;;;;3.10;2.50;;;13.40;1.00;;;;;;7365327;19;20484;-64
2022/04/26 14:50:36;;;;;;;2.67;2.00;;;13.80;1.00;;;;;;7365683;19;20490;-63
2022/04/26 14:53:06;;;;;;;2.20;1.80;;;13.80;1.00;;;;;;7355879;19;20109;-64
2022/04/26 14:55:57;;;;;;;2.08;1.40;;;14.10;1.00;;;;;;7362461;19;20010;-64
2022/04/26 14:58:29;;;;;;;1.85;1.30;;;13.80;1.00;;;;;;7385103;19;20046;-63
2022/04/26 15:01:00;;;;;;;1.30;0.93;;;13.10;1.00;;;;;;7364867;19;20082;-63
2022/04/26 15:03:33;;;;;;;2.85;1.40;;;13.40;1.00;;;;;;7355248;19;20589;-65
2022/04/26 15:06:04;;;;;;;1.73;1.38;;;13.80;1.00;;;;;;7365395;19;20093;-66
2022/04/26 15:11:22;;;;;;;1.92;1.30;;;13.00;1.00;;;;;;7361470;19;20010;-62
2022/04/26 15:16:41;;;;;;;1.95;1.65;;;13.10;1.00;;;;;;7385553;19;20010;-63
2022/04/26 15:19:17;;;;;;;2.90;2.05;;;12.60;1.00;;;;;;7364371;19;20007;-65
2022/04/26 15:21:47;;;;;;;3.17;2.20;;;12.40;1.00;;;;;;7354939;19;20090;-65
2022/04/26 15:24:18;;;;;;;4.75;2.42;;;12.60;1.00;;;;;;7358678;19;20010;-64
2022/04/26 15:26:48;;;;;;;3.58;2.53;;;12.90;1.00;;;;;;7363482;19;20018;-64
2022/04/26 15:29:19;;;;;;;3.40;2.45;;;13.40;1.00;;;;;;7362775;19;20010;-63
2022/04/26 15:31:49;;;;;;;4.40;2.60;;;13.40;1.00;;;;;;7354225;19;20322;-65
2022/04/26 15:34:21;;;;;;;4.15;3.22;;;13.20;1.00;;;;;;7379897;19;20022;-63
2022/04/26 15:36:51;;;;;;;4.30;3.15;;;13.10;1.00;;;;;;7363163;19;20327;-64
2022/04/26 15:39:21;;;;;;;3.22;2.92;;;13.10;1.00;;;;;;7361217;19;20014;-64
2022/04/26 15:41:51;;;;;;;4.43;3.08;;;12.70;1.00;;;;;;7356417;19;20098;-64
2022/04/26 15:44:21;;;;;;;7.05;3.25;;;12.90;1.00;;;;;;7359355;19;20006;-64
2022/04/26 15:46:52;;;;;;;4.15;3.42;;;13.00;1.00;;;;;;7363007;19;20545;-65
2022/04/26 15:49:27;;;;;;;4.85;3.30;;;12.80;1.00;;;;;;7384290;19;20500;-64
2022/04/26 15:51:57;;;;;;;4.43;3.40;;;13.00;1.00;;;;;;7355129;19;20029;-65
2022/04/26 15:54:28;;;;;;;6.40;3.67;;;12.60;1.00;;;;;;7357950;19;20094;-65
2022/04/26 15:56:58;;;;;;;4.57;3.78;;;12.40;1.00;;;;;;7362267;19;20015;-64
2022/04/26 15:59:27;;;;;;;3.58;2.88;;;12.30;1.00;;;;;;7362444;19;20018;-66
2022/04/26 16:01:57;;;;;;;2.92;2.05;;;12.10;1.00;;;;;;7356984;19;20014;-64
2022/04/26 16:04:30;;;;;;;1.92;1.60;;;12.00;1.00;;;;;;7380223;19;20441;-64
2022/04/26 16:07:00;;;;;;;3.13;2.28;;;11.80;1.00;;;;;;7362213;19;20022;-64
2022/04/26 16:20:32;;;;;;;2.47;1.98;;;11.60;1.00;;;;;;7360998;19;20475;-63
2022/04/26 16:23:07;;;;;;;2.72;1.85;;;11.60;1.00;;;;;;7352983;19;20007;-64
2022/04/26 16:25:37;;;;;;;1.90;1.48;;;11.90;1.00;;;;;;7382090;19;20014;-63
2022/04/26 16:28:09;;;;;;;2.00;1.80;;;11.20;1.00;;;;;;7361078;19;20014;-64
2022/04/26 16:30:40;;;;;;;2.50;1.98;;;11.30;1.00;;;;;;7360149;19;20014;-64
2022/04/26 16:33:12;;;;;;;2.22;1.80;;;11.20;1.00;;;;;;7352022;19;20032;-63
2022/04/26 16:35:45;;;;;;;2.03;1.48;;;10.90;1.00;;;;;;7359064;19;20106;-64
2022/04/26 16:38:17;;;;;;;1.67;1.25;;;10.90;1.00;;;;;;7360675;19;20370;-64
2022/04/26 16:40:47;;;;;;;3.00;1.58;;;10.80;1.00;;;;;;7360468;19;20018;-63
2022/04/26 16:43:17;;;;;;;1.70;1.58;;;10.70;1.00;;;;;;7374358;19;20025;-64
2022/04/26 16:45:48;;;;;;;2.75;1.95;;;10.60;1.00;;;;;;7358150;19;20019;-64
2022/04/26 16:48:22;;;;;;;3.05;2.13;;;10.90;1.00;;;;;;7361299;19;20018;-64
2022/04/26 16:51:02;;;;;;;4.10;2.70;;;11.00;1.00;;;;;;7361096;19;20022;-63
2022/04/26 16:53:32;;;;;;;2.70;1.30;;;10.90;1.00;;;;;;7352420;19;20018;-64
2022/04/26 16:56:03;;;;;;;4.72;1.48;;;10.90;1.00;;;;;;7363617;19;20044;-63
2022/04/26 16:58:33;;;;;;;2.03;1.42;;;10.80;1.00;;;;;;7382827;19;20014;-64
2022/04/26 17:01:03;;;;;;;2.63;1.15;;;10.70;1.00;;;;;;7361113;19;20013;-63
2022/04/26 17:03:33;;;;;;;2.10;1.70;;;10.70;1.00;;;;;;7352204;19;20011;-64
2022/04/26 17:06:06;;;;;;;2.70;1.40;;;10.90;1.00;;;;;;7360867;19;20016;-64
2022/04/26 17:08:36;;;;;;;1.92;1.60;;;11.00;1.00;;;;;;7361852;19;20111;-64
2022/04/26 17:13:48;;;;;;;5.82;1.50;;;10.60;1.00;;;;;;7355046;19;20057;-65
2022/04/26 17:16:18;;;;;;;1.98;1.70;;;10.60;1.00;;;;;;7382580;19;20702;-63
2022/04/26 17:18:48;;;;;;;1.40;1.30;;;10.50;1.00;;;;;;7359925;19;20188;-63
2022/04/26 17:21:21;;;;;;;1.92;1.40;;;10.40;1.00;;;;;;7359435;19;20014;-63
2022/04/26 17:23:51;;;;;;;2.78;1.58;;;10.50;1.00;;;;;;7361442;19;20021;-65
2022/04/26 17:26:26;;;;;;;2.22;1.92;;;10.60;1.00;;;;;;7365178;19;20025;-63
2022/04/26 17:28:56;;;;;;;3.50;2.30;;;10.40;1.00;;;;;;7368327;19;20097;-64
2022/04/26 17:31:26;;;;;;;2.13;1.83;;;10.40;1.00;;;;;;7386970;19;20021;-64
2022/04/26 17:33:57;;;;;;;2.65;1.80;;;10.30;1.30;;;;;;7361546;19;20027;-64
2022/04/26 17:36:30;;;;;;;3.55;2.08;;;10.30;1.70;;;;;;7365847;19;20028;-64
2022/04/26 17:39:00;;;;;;;4.63;2.60;;;10.20;1.90;;;;;;7367058;19;20457;-64
2022/04/26 17:41:31;;;;;;;10.45;2.35;;;10.30;1.80;;;;;;7364155;19;20035;-64